Pagrindinis puslapis
METAR-TAF:

METAR-TAF

Oro uostai :

Sharurah, Saudo Arabija

platuma: 17-28N, ilguma: 047-07E, Aukštis: 720 m

Dabartinis oras

Ataskaita buvo paskelbta 31 minutes, ne 11:00 UTC
Vėjas 16 kt iš Rytų/Šiaurės Rytų
Temperatūra 35°C
Drėgmė 17%
Slėgis 1014 hPa
Matomumas 10 km arba daugiau
Išsisklaidę debesys ne aukštis 4000 ft
Išsisklaidę debesys ne aukštis 8000 ft

METAR: OESH 141100Z 06016KT 9999 SCT040 SCT080 35/06 Q1014 NOSIG

Laikas: 14:31 (11:31 UTC)

Prognozė

Ataskaita buvo paskelbta 12 valandos ir 31 minutes, ne 23:00 UTC
Prognozė galioja nuo 14 metu 00 UTC su 15 metu 06 UTC
Vėjas 10 kt iš Pietų
Matomumas: 8000 m
Mažai debesys ne aukštis 4000 ft
Tapsmas
nuo 14 metu 09 UTC su 14 metu 11 UTC
Vėjas 10 kt iš Šiaurės Rytų su gūsio iki 20 kt
Laikinai
nuo 14 metu 10 UTC su 14 metu 18 UTC
Matomumas: 3000 m
dulkės, Dulkes pustymas

TAF: OESH 132300Z 1400/1506 19010KT 8000 FEW040 BECMG 1409/1411 05010G20KT TEMPO 1410/1418 3000 DU BLDU

Orai ataskaitas ir orų prognozės (METAR, TAF).

turimą stotys yra geltonos ir raudonos taškus žemėlapyje.

Perkelti pele per norėdami pamatyti stoties vardą.

Tada spustelėkite, norėdami matyti oro stebėjimo ir prognozės.

Norėdami pakeisti žemėlapį: spustelėkite ant žalios mygtukų su juodo kryžiaus žemyn,; žalią mygtuką su brūkšneliu, jei norite nutolinti; arba žalių rodyklių gretimoms žemėlapius.


METAR-TAF: